sensor_id;sensor_type;location;lat;lon;timestamp;pressure;altitude;pressure_sealevel;temperature;humidity
25156;BME280;21913;52.456;13.634;2022-12-07T00:00:30;100226.75;;;11.99;60.23
25156;BME280;21913;52.456;13.634;2022-12-07T00:05:31;100224.16;;;11.99;60.24
25156;BME280;21913;52.456;13.634;2022-12-07T00:10:34;100220.72;;;11.99;60.18
25156;BME280;21913;52.456;13.634;2022-12-07T00:15:36;100233.66;;;12.00;60.19
25156;BME280;21913;52.456;13.634;2022-12-07T00:20:37;100228.47;;;11.99;60.29
25156;BME280;21913;52.456;13.634;2022-12-07T00:25:39;100227.59;;;12.01;60.39
25156;BME280;21913;52.456;13.634;2022-12-07T00:30:40;100218.09;;;12.00;60.36
25156;BME280;21913;52.456;13.634;2022-12-07T00:35:42;100213.78;;;11.99;60.45
25156;BME280;21913;52.456;13.634;2022-12-07T00:40:54;100206.88;;;12.00;60.37
25156;BME280;21913;52.456;13.634;2022-12-07T00:45:56;100215.50;;;12.00;60.40
25156;BME280;21913;52.456;13.634;2022-12-07T00:50:58;100205.13;;;12.00;60.26
25156;BME280;21913;52.456;13.634;2022-12-07T00:56:05;100201.66;;;12.01;60.38
25156;BME280;21913;52.456;13.634;2022-12-07T01:01:08;100211.19;;;11.99;60.26
25156;BME280;21913;52.456;13.634;2022-12-07T01:06:14;100199.09;;;12.00;60.41
25156;BME280;21913;52.456;13.634;2022-12-07T01:11:18;100190.44;;;11.99;60.51
25156;BME280;21913;52.456;13.634;2022-12-07T01:16:26;100192.16;;;12.00;60.37
25156;BME280;21913;52.456;13.634;2022-12-07T01:21:30;100187.84;;;11.99;60.48
25156;BME280;21913;52.456;13.634;2022-12-07T01:26:32;100191.31;;;12.00;60.62
25156;BME280;21913;52.456;13.634;2022-12-07T01:31:34;100194.75;;;12.00;60.36
25156;BME280;21913;52.456;13.634;2022-12-07T01:36:36;100196.50;;;12.00;60.67
25156;BME280;21913;52.456;13.634;2022-12-07T01:41:39;100207.72;;;12.00;60.58
25156;BME280;21913;52.456;13.634;2022-12-07T01:46:47;100206.88;;;12.00;60.48
25156;BME280;21913;52.456;13.634;2022-12-07T01:51:49;100197.34;;;12.00;60.62
25156;BME280;21913;52.456;13.634;2022-12-07T01:56:54;100212.06;;;12.00;60.53
25156;BME280;21913;52.456;13.634;2022-12-07T02:01:58;100193.91;;;12.00;60.56
25156;BME280;21913;52.456;13.634;2022-12-07T02:07:00;100198.22;;;11.99;60.49
25156;BME280;21913;52.456;13.634;2022-12-07T02:12:02;100200.81;;;11.99;60.47
25156;BME280;21913;52.456;13.634;2022-12-07T02:17:31;100189.56;;;12.00;60.54
25156;BME280;21913;52.456;13.634;2022-12-07T02:23:04;100194.75;;;12.00;60.46
25156;BME280;21913;52.456;13.634;2022-12-07T02:28:29;100194.75;;;12.00;60.45
25156;BME280;21913;52.456;13.634;2022-12-07T02:33:38;100203.41;;;11.99;60.55
25156;BME280;21913;52.456;13.634;2022-12-07T02:38:55;100193.91;;;12.00;60.54
25156;BME280;21913;52.456;13.634;2022-12-07T02:44:03;100192.16;;;12.00;60.64
25156;BME280;21913;52.456;13.634;2022-12-07T02:49:07;100189.56;;;12.00;60.78
25156;BME280;21913;52.456;13.634;2022-12-07T02:54:15;100193.91;;;12.00;60.71
25156;BME280;21913;52.456;13.634;2022-12-07T03:04:50;100184.38;;;12.00;60.71
25156;BME280;21913;52.456;13.634;2022-12-07T03:10:08;100185.25;;;11.99;60.72
25156;BME280;21913;52.456;13.634;2022-12-07T03:15:19;100188.72;;;12.00;60.63
25156;BME280;21913;52.456;13.634;2022-12-07T03:20:23;100193.03;;;11.99;60.57
25156;BME280;21913;52.456;13.634;2022-12-07T03:25:27;100186.13;;;11.98;60.68
25156;BME280;21913;52.456;13.634;2022-12-07T03:31:00;100190.44;;;11.99;60.73
25156;BME280;21913;52.456;13.634;2022-12-07T03:36:05;100184.41;;;11.99;60.65
25156;BME280;21913;52.456;13.634;2022-12-07T03:41:27;100184.41;;;11.99;60.74
25156;BME280;21913;52.456;13.634;2022-12-07T03:56:57;100181.81;;;11.99;60.68
25156;BME280;21913;52.456;13.634;2022-12-07T04:02:05;100173.16;;;12.00;60.78
25156;BME280;21913;52.456;13.634;2022-12-07T04:07:07;100177.47;;;11.99;60.64
25156;BME280;21913;52.456;13.634;2022-12-07T04:12:09;100169.69;;;11.99;60.75
25156;BME280;21913;52.456;13.634;2022-12-07T04:17:11;100167.97;;;11.98;60.81
25156;BME280;21913;52.456;13.634;2022-12-07T04:22:13;100175.75;;;12.00;60.84
25156;BME280;21913;52.456;13.634;2022-12-07T04:27:15;100177.47;;;11.99;60.74
25156;BME280;21913;52.456;13.634;2022-12-07T04:32:16;100181.81;;;11.99;60.76
25156;BME280;21913;52.456;13.634;2022-12-07T04:37:18;100186.13;;;11.98;60.69
25156;BME280;21913;52.456;13.634;2022-12-07T04:42:19;100180.09;;;11.98;60.74
25156;BME280;21913;52.456;13.634;2022-12-07T04:47:21;100179.22;;;11.99;60.76
25156;BME280;21913;52.456;13.634;2022-12-07T04:52:23;100184.41;;;11.99;60.70
25156;BME280;21913;52.456;13.634;2022-12-07T04:57:25;100175.75;;;11.98;60.79
25156;BME280;21913;52.456;13.634;2022-12-07T05:02:26;100175.75;;;11.98;60.75
25156;BME280;21913;52.456;13.634;2022-12-07T05:07:28;100179.22;;;11.99;60.72
25156;BME280;21913;52.456;13.634;2022-12-07T05:12:30;100169.69;;;11.99;60.78
25156;BME280;21913;52.456;13.634;2022-12-07T05:17:31;100166.25;;;11.99;60.72
25156;BME280;21913;52.456;13.634;2022-12-07T05:22:33;100163.66;;;11.99;60.72
25156;BME280;21913;52.456;13.634;2022-12-07T05:27:35;100175.75;;;11.98;60.77
25156;BME280;21913;52.456;13.634;2022-12-07T05:32:37;100180.94;;;11.98;60.69
25156;BME280;21913;52.456;13.634;2022-12-07T05:37:38;100174.91;;;11.98;60.73
25156;BME280;21913;52.456;13.634;2022-12-07T05:42:40;100181.81;;;11.99;60.72
25156;BME280;21913;52.456;13.634;2022-12-07T05:47:42;100170.56;;;11.98;60.69
25156;BME280;21913;52.456;13.634;2022-12-07T05:52:43;100155.88;;;11.99;60.84
25156;BME280;21913;52.456;13.634;2022-12-07T05:57:45;100150.69;;;11.99;60.72
25156;BME280;21913;52.456;13.634;2022-12-07T06:02:47;100147.25;;;11.98;60.83
25156;BME280;21913;52.456;13.634;2022-12-07T06:07:49;100154.16;;;11.98;60.78
25156;BME280;21913;52.456;13.634;2022-12-07T06:12:50;100156.75;;;11.98;60.66
25156;BME280;21913;52.456;13.634;2022-12-07T06:17:52;100155.91;;;11.97;60.78
25156;BME280;21913;52.456;13.634;2022-12-07T06:22:54;100158.50;;;11.97;60.69
25156;BME280;21913;52.456;13.634;2022-12-07T06:27:55;100159.34;;;11.98;60.76
25156;BME280;21913;52.456;13.634;2022-12-07T06:32:57;100168.84;;;11.97;60.73
25156;BME280;21913;52.456;13.634;2022-12-07T06:37:59;100168.84;;;11.99;60.79
25156;BME280;21913;52.456;13.634;2022-12-07T06:43:00;100171.44;;;11.97;61.01
25156;BME280;21913;52.456;13.634;2022-12-07T06:48:02;100180.09;;;11.98;60.75
25156;BME280;21913;52.456;13.634;2022-12-07T06:53:04;100174.91;;;11.98;60.81
25156;BME280;21913;52.456;13.634;2022-12-07T06:58:05;100169.72;;;11.98;60.75
25156;BME280;21913;52.456;13.634;2022-12-07T07:03:07;100162.81;;;11.97;60.78
25156;BME280;21913;52.456;13.634;2022-12-07T07:08:09;100175.78;;;11.97;60.83
25156;BME280;21913;52.456;13.634;2022-12-07T07:13:27;100176.63;;;11.97;60.78
25156;BME280;21913;52.456;13.634;2022-12-07T07:18:29;100191.31;;;11.98;60.88
25156;BME280;21913;52.456;13.634;2022-12-07T07:23:30;100179.22;;;11.97;60.72
25156;BME280;21913;52.456;13.634;2022-12-07T07:28:32;100179.22;;;11.97;60.92
25156;BME280;21913;52.456;13.634;2022-12-07T07:33:34;100180.94;;;11.98;60.82
25156;BME280;21913;52.456;13.634;2022-12-07T07:38:35;100187.00;;;11.97;61.09
25156;BME280;21913;52.456;13.634;2022-12-07T07:43:37;100201.72;;;11.97;60.86
25156;BME280;21913;52.456;13.634;2022-12-07T07:48:39;100197.38;;;11.97;60.64
25156;BME280;21913;52.456;13.634;2022-12-07T07:53:41;100205.16;;;11.97;60.66
25156;BME280;21913;52.456;13.634;2022-12-07T07:58:42;100206.91;;;11.97;60.64
25156;BME280;21913;52.456;13.634;2022-12-07T08:03:44;100204.31;;;11.97;60.90
25156;BME280;21913;52.456;13.634;2022-12-07T08:08:46;100215.50;;;11.96;60.46
25156;BME280;21913;52.456;13.634;2022-12-07T08:13:47;100206.91;;;11.92;59.51
25156;BME280;21913;52.456;13.634;2022-12-07T08:18:49;100207.75;;;11.93;59.43
25156;BME280;21913;52.456;13.634;2022-12-07T08:23:51;100212.94;;;11.93;59.64
25156;BME280;21913;52.456;13.634;2022-12-07T08:28:53;100208.63;;;11.93;59.61
25156;BME280;21913;52.456;13.634;2022-12-07T08:33:54;100208.59;;;11.95;59.70
25156;BME280;21913;52.456;13.634;2022-12-07T08:38:56;100207.75;;;11.94;59.71
25156;BME280;21913;52.456;13.634;2022-12-07T08:44:18;100214.66;;;11.95;59.69
25156;BME280;21913;52.456;13.634;2022-12-07T08:49:23;100212.06;;;11.95;59.85
25156;BME280;21913;52.456;13.634;2022-12-07T08:54:28;100208.59;;;11.95;60.14
25156;BME280;21913;52.456;13.634;2022-12-07T08:59:30;100209.47;;;11.95;60.02
25156;BME280;21913;52.456;13.634;2022-12-07T09:04:32;100205.13;;;11.96;60.13
25156;BME280;21913;52.456;13.634;2022-12-07T09:09:33;100212.06;;;11.95;60.06
25156;BME280;21913;52.456;13.634;2022-12-07T09:14:35;100207.72;;;11.96;60.03
25156;BME280;21913;52.456;13.634;2022-12-07T09:19:37;100215.53;;;11.97;60.18
25156;BME280;21913;52.456;13.634;2022-12-07T09:24:39;100217.28;;;11.97;60.23
25156;BME280;21913;52.456;13.634;2022-12-07T09:29:41;100224.19;;;11.96;60.17
25156;BME280;21913;52.456;13.634;2022-12-07T09:34:42;100213.81;;;11.96;60.31
25156;BME280;21913;52.456;13.634;2022-12-07T09:39:44;100214.69;;;11.97;60.16
25156;BME280;21913;52.456;13.634;2022-12-07T09:44:50;100206.91;;;11.97;60.14
25156;BME280;21913;52.456;13.634;2022-12-07T09:49:54;100202.56;;;11.97;60.28
25156;BME280;21913;52.456;13.634;2022-12-07T09:54:56;100195.66;;;11.96;60.11
25156;BME280;21913;52.456;13.634;2022-12-07T10:00:02;100194.78;;;11.97;60.09
25156;BME280;21913;52.456;13.634;2022-12-07T10:05:07;100204.31;;;11.97;60.32
25156;BME280;21913;52.456;13.634;2022-12-07T10:10:15;100193.06;;;11.96;60.24
25156;BME280;21913;52.456;13.634;2022-12-07T10:15:19;100187.88;;;11.96;60.29
25156;BME280;21913;52.456;13.634;2022-12-07T10:20:26;100185.28;;;11.98;60.23
25156;BME280;21913;52.456;13.634;2022-12-07T10:25:33;100194.78;;;11.97;60.29
25156;BME280;21913;52.456;13.634;2022-12-07T10:31:34;100196.50;;;11.98;60.39
25156;BME280;21913;52.456;13.634;2022-12-07T10:36:27;100185.28;;;11.98;60.40
25156;BME280;21913;52.456;13.634;2022-12-07T10:41:35;100173.16;;;11.95;60.39
25156;BME280;21913;52.456;13.634;2022-12-07T10:52:51;100172.31;;;11.96;60.52
25156;BME280;21913;52.456;13.634;2022-12-07T11:03:48;100153.28;;;11.96;60.40
25156;BME280;21913;52.456;13.634;2022-12-07T11:14:40;100142.06;;;11.97;60.48
25156;BME280;21913;52.456;13.634;2022-12-07T11:20:00;100136.88;;;11.98;60.43
25156;BME280;21913;52.456;13.634;2022-12-07T11:25:17;100139.47;;;11.97;60.61
25156;BME280;21913;52.456;13.634;2022-12-07T11:30:41;100142.94;;;11.97;60.61
25156;BME280;21913;52.456;13.634;2022-12-07T11:41:05;100129.97;;;11.97;60.55
25156;BME280;21913;52.456;13.634;2022-12-07T11:46:11;100129.97;;;11.97;60.68
25156;BME280;21913;52.456;13.634;2022-12-07T11:51:16;100122.19;;;11.97;60.59
25156;BME280;21913;52.456;13.634;2022-12-07T11:56:21;100116.13;;;11.97;60.56
25156;BME280;21913;52.456;13.634;2022-12-07T12:06:30;100100.59;;;11.97;60.71
25156;BME280;21913;52.456;13.634;2022-12-07T12:11:56;100106.63;;;11.97;60.58
25156;BME280;21913;52.456;13.634;2022-12-07T12:23:09;100096.25;;;11.97;60.82
25156;BME280;21913;52.456;13.634;2022-12-07T12:33:53;100096.25;;;11.94;60.02
25156;BME280;21913;52.456;13.634;2022-12-07T12:43:59;100080.69;;;11.94;60.03
25156;BME280;21913;52.456;13.634;2022-12-07T12:59:29;100074.63;;;11.95;60.19
25156;BME280;21913;52.456;13.634;2022-12-07T13:04:39;100073.78;;;11.96;60.40
25156;BME280;21913;52.456;13.634;2022-12-07T13:09:43;100063.44;;;11.96;60.42
25156;BME280;21913;52.456;13.634;2022-12-07T13:14:56;100065.13;;;11.97;60.33
25156;BME280;21913;52.456;13.634;2022-12-07T13:20:02;100059.94;;;11.97;60.43
25156;BME280;21913;52.456;13.634;2022-12-07T13:25:10;100054.78;;;11.97;60.33
25156;BME280;21913;52.456;13.634;2022-12-07T13:30:15;100054.78;;;11.97;60.52
25156;BME280;21913;52.456;13.634;2022-12-07T13:35:35;100051.28;;;11.98;60.43
25156;BME280;21913;52.456;13.634;2022-12-07T13:40:37;100046.13;;;11.97;60.47
25156;BME280;21913;52.456;13.634;2022-12-07T13:45:39;100049.59;;;11.97;60.53
25156;BME280;21913;52.456;13.634;2022-12-07T13:50:41;100040.94;;;11.97;60.58
25156;BME280;21913;52.456;13.634;2022-12-07T13:55:47;100040.94;;;11.98;60.56
25156;BME280;21913;52.456;13.634;2022-12-07T14:00:53;100033.16;;;11.97;60.52
25156;BME280;21913;52.456;13.634;2022-12-07T14:06:22;100035.75;;;11.98;60.49
25156;BME280;21913;52.456;13.634;2022-12-07T14:11:28;100028.84;;;11.97;60.56
25156;BME280;21913;52.456;13.634;2022-12-07T14:16:32;100022.78;;;11.97;60.48
25156;BME280;21913;52.456;13.634;2022-12-07T14:21:34;100024.53;;;11.96;60.51
25156;BME280;21913;52.456;13.634;2022-12-07T14:26:38;100027.13;;;11.96;60.62
25156;BME280;21913;52.456;13.634;2022-12-07T14:31:39;100023.66;;;11.97;60.67
25156;BME280;21913;52.456;13.634;2022-12-07T14:36:41;100019.31;;;11.98;60.56
25156;BME280;21913;52.456;13.634;2022-12-07T14:41:43;100016.75;;;11.96;60.61
25156;BME280;21913;52.456;13.634;2022-12-07T14:46:45;100004.63;;;11.95;60.56
25156;BME280;21913;52.456;13.634;2022-12-07T14:51:47;100014.13;;;11.98;60.59
25156;BME280;21913;52.456;13.634;2022-12-07T14:57:10;100011.53;;;11.98;60.63
25156;BME280;21913;52.456;13.634;2022-12-07T15:02:15;100005.50;;;11.97;60.64
25156;BME280;21913;52.456;13.634;2022-12-07T15:07:19;100002.91;;;11.97;60.65
25156;BME280;21913;52.456;13.634;2022-12-07T15:12:21;100005.50;;;11.97;60.56
25156;BME280;21913;52.456;13.634;2022-12-07T15:17:22;99996.00;;;11.98;60.82
25156;BME280;21913;52.456;13.634;2022-12-07T15:22:30;100008.09;;;11.97;60.66
25156;BME280;21913;52.456;13.634;2022-12-07T15:27:35;100008.09;;;11.97;60.66
25156;BME280;21913;52.456;13.634;2022-12-07T15:32:37;100002.91;;;11.97;60.82
25156;BME280;21913;52.456;13.634;2022-12-07T15:37:38;99995.13;;;11.97;60.84
25156;BME280;21913;52.456;13.634;2022-12-07T15:42:40;99998.59;;;11.98;60.67
25156;BME280;21913;52.456;13.634;2022-12-07T15:47:43;99985.63;;;11.98;60.74
25156;BME280;21913;52.456;13.634;2022-12-07T15:53:03;99974.38;;;11.97;60.71
25156;BME280;21913;52.456;13.634;2022-12-07T15:58:04;99973.53;;;11.97;60.81
25156;BME280;21913;52.456;13.634;2022-12-07T16:03:06;99974.38;;;11.97;60.73
25156;BME280;21913;52.456;13.634;2022-12-07T16:08:08;99970.94;;;11.97;60.78
25156;BME280;21913;52.456;13.634;2022-12-07T16:13:12;99970.94;;;11.97;60.57
25156;BME280;21913;52.456;13.634;2022-12-07T16:18:14;99972.66;;;11.98;60.60
25156;BME280;21913;52.456;13.634;2022-12-07T16:23:15;99973.50;;;11.98;60.71
25156;BME280;21913;52.456;13.634;2022-12-07T16:28:17;99968.34;;;11.97;60.74
25156;BME280;21913;52.456;13.634;2022-12-07T16:33:18;99971.78;;;11.97;60.63
25156;BME280;21913;52.456;13.634;2022-12-07T16:38:21;99964.00;;;11.97;60.90
25156;BME280;21913;52.456;13.634;2022-12-07T16:43:23;99956.25;;;11.97;60.64
25156;BME280;21913;52.456;13.634;2022-12-07T16:48:25;99964.00;;;11.97;60.76
25156;BME280;21913;52.456;13.634;2022-12-07T16:53:27;99954.53;;;11.96;60.71
25156;BME280;21913;52.456;13.634;2022-12-07T16:58:28;99945.84;;;11.96;60.69
25156;BME280;21913;52.456;13.634;2022-12-07T17:03:30;99944.16;;;11.96;60.69
25156;BME280;21913;52.456;13.634;2022-12-07T17:08:31;99933.78;;;11.96;60.81
25156;BME280;21913;52.456;13.634;2022-12-07T17:13:33;99934.63;;;11.97;60.81
25156;BME280;21913;52.456;13.634;2022-12-07T17:18:35;99929.44;;;11.97;60.65
25156;BME280;21913;52.456;13.634;2022-12-07T17:23:37;99927.72;;;11.97;60.83
25156;BME280;21913;52.456;13.634;2022-12-07T17:28:38;99921.69;;;11.97;60.82
25156;BME280;21913;52.456;13.634;2022-12-07T17:33:40;99922.50;;;11.96;60.71
25156;BME280;21913;52.456;13.634;2022-12-07T17:38:42;99926.00;;;11.96;60.95
25156;BME280;21913;52.456;13.634;2022-12-07T17:43:44;99925.13;;;11.97;60.77
25156;BME280;21913;52.456;13.634;2022-12-07T17:48:45;99914.75;;;11.97;60.55
25156;BME280;21913;52.456;13.634;2022-12-07T17:53:48;99903.53;;;11.97;60.84
25156;BME280;21913;52.456;13.634;2022-12-07T17:58:50;99897.50;;;11.93;60.55
25156;BME280;21913;52.456;13.634;2022-12-07T18:03:52;99900.09;;;11.90;59.74
25156;BME280;21913;52.456;13.634;2022-12-07T18:08:53;99902.69;;;11.90;59.79
25156;BME280;21913;52.456;13.634;2022-12-07T18:13:55;99902.69;;;11.92;59.83
25156;BME280;21913;52.456;13.634;2022-12-07T18:19:02;99896.63;;;11.93;59.97
25156;BME280;21913;52.456;13.634;2022-12-07T18:24:05;99889.72;;;11.93;59.88
25156;BME280;21913;52.456;13.634;2022-12-07T18:29:08;99887.97;;;11.94;59.90
25156;BME280;21913;52.456;13.634;2022-12-07T18:34:12;99876.72;;;11.95;60.04
25156;BME280;21913;52.456;13.634;2022-12-07T18:39:15;99878.47;;;11.94;60.05
25156;BME280;21913;52.456;13.634;2022-12-07T18:44:18;99885.38;;;11.95;59.94
25156;BME280;21913;52.456;13.634;2022-12-07T18:49:19;99880.19;;;11.95;60.06
25156;BME280;21913;52.456;13.634;2022-12-07T18:54:21;99880.19;;;11.94;59.94
25156;BME280;21913;52.456;13.634;2022-12-07T18:59:23;99874.13;;;11.95;60.13
25156;BME280;21913;52.456;13.634;2022-12-07T19:04:24;99862.91;;;11.94;60.25
25156;BME280;21913;52.456;13.634;2022-12-07T19:09:26;99869.81;;;11.95;60.16
25156;BME280;21913;52.456;13.634;2022-12-07T19:14:32;99866.38;;;11.96;60.18
25156;BME280;21913;52.456;13.634;2022-12-07T19:19:36;99862.88;;;11.96;60.29
25156;BME280;21913;52.456;13.634;2022-12-07T19:24:38;99867.22;;;11.95;60.38
25156;BME280;21913;52.456;13.634;2022-12-07T19:29:40;99859.44;;;11.95;60.30
25156;BME280;21913;52.456;13.634;2022-12-07T19:34:45;99855.09;;;11.96;60.28
25156;BME280;21913;52.456;13.634;2022-12-07T19:39:47;99854.25;;;11.95;60.43
25156;BME280;21913;52.456;13.634;2022-12-07T19:44:49;99848.22;;;11.95;60.23
25156;BME280;21913;52.456;13.634;2022-12-07T19:49:51;99845.63;;;11.95;60.34
25156;BME280;21913;52.456;13.634;2022-12-07T19:54:52;99837.84;;;11.96;60.40
25156;BME280;21913;52.456;13.634;2022-12-07T19:59:56;99837.84;;;11.95;60.36
25156;BME280;21913;52.456;13.634;2022-12-07T20:04:58;99830.97;;;11.92;59.98
25156;BME280;21913;52.456;13.634;2022-12-07T20:10:02;99831.84;;;11.88;59.33
25156;BME280;21913;52.456;13.634;2022-12-07T20:15:04;99815.44;;;11.91;58.93
25156;BME280;21913;52.456;13.634;2022-12-07T20:20:06;99821.44;;;11.93;58.95
25156;BME280;21913;52.456;13.634;2022-12-07T20:25:08;99807.59;;;11.94;58.98
25156;BME280;21913;52.456;13.634;2022-12-07T20:30:10;99809.34;;;11.93;59.29
25156;BME280;21913;52.456;13.634;2022-12-07T20:35:12;99798.97;;;11.93;59.42
25156;BME280;21913;52.456;13.634;2022-12-07T20:40:13;99805.00;;;11.94;59.37
25156;BME280;21913;52.456;13.634;2022-12-07T20:45:15;99791.19;;;11.93;59.41
25156;BME280;21913;52.456;13.634;2022-12-07T20:50:17;99782.56;;;11.93;59.54
25156;BME280;21913;52.456;13.634;2022-12-07T20:55:18;99782.56;;;11.93;59.55
25156;BME280;21913;52.456;13.634;2022-12-07T21:00:20;99773.03;;;11.93;59.75
25156;BME280;21913;52.456;13.634;2022-12-07T21:05:23;99766.97;;;11.94;59.67
25156;BME280;21913;52.456;13.634;2022-12-07T21:10:25;99763.56;;;11.92;59.65
25156;BME280;21913;52.456;13.634;2022-12-07T21:15:26;99769.59;;;11.93;59.72
25156;BME280;21913;52.456;13.634;2022-12-07T21:20:28;99767.84;;;11.93;59.63
25156;BME280;21913;52.456;13.634;2022-12-07T21:25:30;99773.91;;;11.94;59.69
25156;BME280;21913;52.456;13.634;2022-12-07T21:30:31;99783.41;;;11.93;59.81
25156;BME280;21913;52.456;13.634;2022-12-07T21:35:40;99767.84;;;11.93;59.80
25156;BME280;21913;52.456;13.634;2022-12-07T21:40:42;99764.38;;;11.94;59.94
25156;BME280;21913;52.456;13.634;2022-12-07T21:45:49;99758.34;;;11.94;60.07
25156;BME280;21913;52.456;13.634;2022-12-07T21:50:51;99757.50;;;11.93;59.97
25156;BME280;21913;52.456;13.634;2022-12-07T21:55:53;99757.50;;;11.93;59.75
25156;BME280;21913;52.456;13.634;2022-12-07T22:00:54;99750.59;;;11.92;59.82
25156;BME280;21913;52.456;13.634;2022-12-07T22:05:59;99754.91;;;11.93;59.94
25156;BME280;21913;52.456;13.634;2022-12-07T22:11:01;99753.16;;;11.94;59.96
25156;BME280;21913;52.456;13.634;2022-12-07T22:16:03;99747.13;;;11.93;59.88
25156;BME280;21913;52.456;13.634;2022-12-07T22:21:05;99749.72;;;11.93;59.73
25156;BME280;21913;52.456;13.634;2022-12-07T22:26:08;99750.56;;;11.94;59.98
25156;BME280;21913;52.456;13.634;2022-12-07T22:31:15;99743.66;;;11.93;59.83
25156;BME280;21913;52.456;13.634;2022-12-07T22:36:17;99738.47;;;11.93;59.99
25156;BME280;21913;52.456;13.634;2022-12-07T22:41:27;99737.59;;;11.94;59.96
25156;BME280;21913;52.456;13.634;2022-12-07T22:46:29;99729.84;;;11.92;59.88
25156;BME280;21913;52.456;13.634;2022-12-07T22:51:33;99735.00;;;11.94;59.87
25156;BME280;21913;52.456;13.634;2022-12-07T22:56:36;99728.97;;;11.93;59.92
25156;BME280;21913;52.456;13.634;2022-12-07T23:01:38;99731.56;;;11.93;59.94
25156;BME280;21913;52.456;13.634;2022-12-07T23:06:40;99720.31;;;11.94;59.88
25156;BME280;21913;52.456;13.634;2022-12-07T23:11:42;99702.16;;;11.94;60.00
25156;BME280;21913;52.456;13.634;2022-12-07T23:16:44;99701.31;;;11.94;60.10
25156;BME280;21913;52.456;13.634;2022-12-07T23:21:45;99687.50;;;11.93;60.07
25156;BME280;21913;52.456;13.634;2022-12-07T23:26:47;99695.25;;;11.93;59.96
25156;BME280;21913;52.456;13.634;2022-12-07T23:31:49;99685.75;;;11.94;59.96
25156;BME280;21913;52.456;13.634;2022-12-07T23:36:50;99674.56;;;11.92;59.98
25156;BME280;21913;52.456;13.634;2022-12-07T23:41:52;99683.16;;;11.94;59.96
25156;BME280;21913;52.456;13.634;2022-12-07T23:46:54;99680.56;;;11.94;60.04
25156;BME280;21913;52.456;13.634;2022-12-07T23:51:55;99671.94;;;11.93;60.14
25156;BME280;21913;52.456;13.634;2022-12-07T23:56:57;99669.34;;;11.93;59.99
